CSH3 weather

Calgary/South Health Campus Hospital Helipad
Calgary, Alberta, Canada

Public forecast

Using degrees Celsius for public forecast. Weather courtesy of forecast.io.

Closest aviation weather report (METAR) to Calgary/South Health Campus Hospital Helipad

Closest report is Calgary International Airport, 14.1 nm (26.1 km) N. Retrieved 2020/01/23 07:00 UTC (22 minutes ago):

CYYC 230700Z 17006KT 15SM FEW200 M04/M11 A2992 RMK CI2 SLP178

Closest aviation forecast (TAF) to Calgary/South Health Campus Hospital Helipad

Closest forecast is Calgary International Airport, 14.1 nm (26.1 km) N. Retrieved 2020/01/23 09:42 UTC (0 seconds ago):

TAF CYYC 230838Z 2309/2406 18005KT P6SM FEW200 BECMG 2310/2312 VRB03KT FM231700 VRB03KT P6SM SCT120 BKN160 BECMG 2317/2319 20008KT BECMG 2322/2324 28008KT FM240300 28005KT P6SM BKN210 RMK NXT FCST BY 231200Z